sensor_id;sensor_type;location;lat;lon;timestamp;temperature;humidity
5138;DHT22;53959;53.626;11.410;2022-10-17T00:00:20;12.20;99.90
5138;DHT22;53959;53.626;11.410;2022-10-17T00:02:45;12.30;99.90
5138;DHT22;53959;53.626;11.410;2022-10-17T00:05:11;12.30;99.90
5138;DHT22;53959;53.626;11.410;2022-10-17T00:07:37;12.40;99.90
5138;DHT22;53959;53.626;11.410;2022-10-17T00:10:04;12.40;99.90
5138;DHT22;53959;53.626;11.410;2022-10-17T00:12:30;12.40;99.90
5138;DHT22;53959;53.626;11.410;2022-10-17T00:14:55;12.40;99.90
5138;DHT22;53959;53.626;11.410;2022-10-17T00:17:21;12.40;99.90
5138;DHT22;53959;53.626;11.410;2022-10-17T00:19:46;12.40;99.90
5138;DHT22;53959;53.626;11.410;2022-10-17T00:22:12;12.30;99.90
5138;DHT22;53959;53.626;11.410;2022-10-17T00:24:37;12.40;99.90
5138;DHT22;53959;53.626;11.410;2022-10-17T00:27:03;12.30;99.90
5138;DHT22;53959;53.626;11.410;2022-10-17T00:29:29;12.30;99.90
5138;DHT22;53959;53.626;11.410;2022-10-17T00:31:57;12.20;99.90
5138;DHT22;53959;53.626;11.410;2022-10-17T00:34:23;12.30;99.90
5138;DHT22;53959;53.626;11.410;2022-10-17T00:36:49;12.30;99.90
5138;DHT22;53959;53.626;11.410;2022-10-17T00:39:14;12.40;99.90
5138;DHT22;53959;53.626;11.410;2022-10-17T00:41:40;12.30;99.90
5138;DHT22;53959;53.626;11.410;2022-10-17T00:45:10;12.30;99.90
5138;DHT22;53959;53.626;11.410;2022-10-17T00:47:17;12.30;99.90
5138;DHT22;53959;53.626;11.410;2022-10-17T00:49:44;12.30;99.90
5138;DHT22;53959;53.626;11.410;2022-10-17T00:52:20;12.30;99.90
5138;DHT22;53959;53.626;11.410;2022-10-17T00:54:57;12.30;99.90
5138;DHT22;53959;53.626;11.410;2022-10-17T00:57:23;12.40;99.90
5138;DHT22;53959;53.626;11.410;2022-10-17T00:59:52;12.30;99.90
5138;DHT22;53959;53.626;11.410;2022-10-17T01:02:20;12.30;99.90
5138;DHT22;53959;53.626;11.410;2022-10-17T01:04:49;12.40;99.90
5138;DHT22;53959;53.626;11.410;2022-10-17T01:07:15;12.40;99.90
5138;DHT22;53959;53.626;11.410;2022-10-17T01:09:42;12.50;99.90
5138;DHT22;53959;53.626;11.410;2022-10-17T01:14:41;12.50;99.90
5138;DHT22;53959;53.626;11.410;2022-10-17T01:23:35;12.60;99.90
5138;DHT22;53959;53.626;11.410;2022-10-17T01:25:51;12.60;99.90
5138;DHT22;53959;53.626;11.410;2022-10-17T01:31:13;12.60;99.90
5138;DHT22;53959;53.626;11.410;2022-10-17T01:33:44;12.70;99.90
5138;DHT22;53959;53.626;11.410;2022-10-17T01:36:23;12.70;99.90
5138;DHT22;53959;53.626;11.410;2022-10-17T01:38:53;12.80;99.90
5138;DHT22;53959;53.626;11.410;2022-10-17T01:43:58;12.80;99.90
5138;DHT22;53959;53.626;11.410;2022-10-17T01:46:36;12.80;99.90
5138;DHT22;53959;53.626;11.410;2022-10-17T01:49:04;12.90;99.90
5138;DHT22;53959;53.626;11.410;2022-10-17T01:51:35;12.90;99.90
5138;DHT22;53959;53.626;11.410;2022-10-17T01:56:33;12.90;99.90
5138;DHT22;53959;53.626;11.410;2022-10-17T01:59:03;13.00;99.90
5138;DHT22;53959;53.626;11.410;2022-10-17T02:01:31;13.00;99.90
5138;DHT22;53959;53.626;11.410;2022-10-17T02:03:57;12.90;99.90
5138;DHT22;53959;53.626;11.410;2022-10-17T02:06:24;13.00;99.90
5138;DHT22;53959;53.626;11.410;2022-10-17T02:08:50;12.90;99.90
5138;DHT22;53959;53.626;11.410;2022-10-17T02:11:23;13.00;99.90
5138;DHT22;53959;53.626;11.410;2022-10-17T02:22:26;13.00;99.90
5138;DHT22;53959;53.626;11.410;2022-10-17T02:27:47;12.80;99.90
5138;DHT22;53959;53.626;11.410;2022-10-17T02:33:36;12.90;99.90
5138;DHT22;53959;53.626;11.410;2022-10-17T02:36:11;12.90;99.90
5138;DHT22;53959;53.626;11.410;2022-10-17T02:38:39;12.90;99.90
5138;DHT22;53959;53.626;11.410;2022-10-17T02:41:08;12.90;99.90
5138;DHT22;53959;53.626;11.410;2022-10-17T02:43:36;12.90;99.90
5138;DHT22;53959;53.626;11.410;2022-10-17T02:46:02;12.90;99.90
5138;DHT22;53959;53.626;11.410;2022-10-17T02:48:37;13.00;99.90
5138;DHT22;53959;53.626;11.410;2022-10-17T02:51:28;12.90;99.90
5138;DHT22;53959;53.626;11.410;2022-10-17T02:54:15;13.00;99.90
5138;DHT22;53959;53.626;11.410;2022-10-17T02:57:13;13.00;99.90
5138;DHT22;53959;53.626;11.410;2022-10-17T02:59:36;13.00;99.90
5138;DHT22;53959;53.626;11.410;2022-10-17T03:02:03;13.00;99.90
5138;DHT22;53959;53.626;11.410;2022-10-17T03:04:29;13.00;99.90
5138;DHT22;53959;53.626;11.410;2022-10-17T03:06:55;13.10;99.90
5138;DHT22;53959;53.626;11.410;2022-10-17T03:09:20;13.10;99.90
5138;DHT22;53959;53.626;11.410;2022-10-17T03:11:46;13.10;99.90
5138;DHT22;53959;53.626;11.410;2022-10-17T03:14:11;13.10;99.90
5138;DHT22;53959;53.626;11.410;2022-10-17T03:16:37;13.10;99.90
5138;DHT22;53959;53.626;11.410;2022-10-17T03:19:02;13.10;99.90
5138;DHT22;53959;53.626;11.410;2022-10-17T03:21:28;13.10;99.90
5138;DHT22;53959;53.626;11.410;2022-10-17T03:23:54;13.10;99.90
5138;DHT22;53959;53.626;11.410;2022-10-17T03:26:19;13.10;99.90
5138;DHT22;53959;53.626;11.410;2022-10-17T03:28:45;13.00;99.90
5138;DHT22;53959;53.626;11.410;2022-10-17T03:31:14;13.00;99.90
5138;DHT22;53959;53.626;11.410;2022-10-17T03:33:40;13.10;99.90
5138;DHT22;53959;53.626;11.410;2022-10-17T03:36:07;13.10;99.90
5138;DHT22;53959;53.626;11.410;2022-10-17T03:38:33;13.00;99.90
5138;DHT22;53959;53.626;11.410;2022-10-17T03:40:59;13.00;99.90
5138;DHT22;53959;53.626;11.410;2022-10-17T03:43:24;12.90;99.90
5138;DHT22;53959;53.626;11.410;2022-10-17T03:45:49;12.90;99.90
5138;DHT22;53959;53.626;11.410;2022-10-17T03:48:15;12.90;99.90
5138;DHT22;53959;53.626;11.410;2022-10-17T03:50:40;12.90;99.90
5138;DHT22;53959;53.626;11.410;2022-10-17T03:53:06;12.80;99.90
5138;DHT22;53959;53.626;11.410;2022-10-17T03:55:32;12.80;99.90
5138;DHT22;53959;53.626;11.410;2022-10-17T03:57:58;12.80;99.90
5138;DHT22;53959;53.626;11.410;2022-10-17T04:00:24;12.80;99.90
5138;DHT22;53959;53.626;11.410;2022-10-17T04:02:49;12.80;99.90
5138;DHT22;53959;53.626;11.410;2022-10-17T04:05:15;12.90;99.90
5138;DHT22;53959;53.626;11.410;2022-10-17T04:07:40;12.90;99.90
5138;DHT22;53959;53.626;11.410;2022-10-17T04:10:06;12.90;99.90
5138;DHT22;53959;53.626;11.410;2022-10-17T04:12:32;12.80;99.90
5138;DHT22;53959;53.626;11.410;2022-10-17T04:14:57;12.80;99.90
5138;DHT22;53959;53.626;11.410;2022-10-17T04:17:23;12.90;99.90
5138;DHT22;53959;53.626;11.410;2022-10-17T04:19:49;12.90;99.90
5138;DHT22;53959;53.626;11.410;2022-10-17T04:22:14;12.90;99.90
5138;DHT22;53959;53.626;11.410;2022-10-17T04:24:40;12.90;99.90
5138;DHT22;53959;53.626;11.410;2022-10-17T04:27:05;12.80;99.90
5138;DHT22;53959;53.626;11.410;2022-10-17T04:29:31;12.80;99.90
5138;DHT22;53959;53.626;11.410;2022-10-17T04:31:56;12.80;99.90
5138;DHT22;53959;53.626;11.410;2022-10-17T04:34:22;12.80;99.90
5138;DHT22;53959;53.626;11.410;2022-10-17T04:36:47;12.80;99.90
5138;DHT22;53959;53.626;11.410;2022-10-17T04:39:13;12.80;99.90
5138;DHT22;53959;53.626;11.410;2022-10-17T04:41:38;12.80;99.90
5138;DHT22;53959;53.626;11.410;2022-10-17T04:44:04;12.80;99.90
5138;DHT22;53959;53.626;11.410;2022-10-17T04:46:32;12.80;99.90
5138;DHT22;53959;53.626;11.410;2022-10-17T04:48:57;12.90;99.90
5138;DHT22;53959;53.626;11.410;2022-10-17T04:51:23;12.90;99.90
5138;DHT22;53959;53.626;11.410;2022-10-17T04:53:49;12.90;99.90
5138;DHT22;53959;53.626;11.410;2022-10-17T04:56:18;12.90;99.90
5138;DHT22;53959;53.626;11.410;2022-10-17T04:58:44;12.90;99.90
5138;DHT22;53959;53.626;11.410;2022-10-17T05:01:16;12.90;99.90
5138;DHT22;53959;53.626;11.410;2022-10-17T05:03:42;13.00;99.90
5138;DHT22;53959;53.626;11.410;2022-10-17T05:06:12;13.00;99.90
5138;DHT22;53959;53.626;11.410;2022-10-17T05:08:38;13.00;99.90
5138;DHT22;53959;53.626;11.410;2022-10-17T05:11:07;13.00;99.90
5138;DHT22;53959;53.626;11.410;2022-10-17T05:13:39;13.00;99.90
5138;DHT22;53959;53.626;11.410;2022-10-17T05:16:04;12.90;99.90
5138;DHT22;53959;53.626;11.410;2022-10-17T05:18:30;12.90;99.90
5138;DHT22;53959;53.626;11.410;2022-10-17T05:20:56;12.90;99.90
5138;DHT22;53959;53.626;11.410;2022-10-17T05:23:21;12.90;99.90
5138;DHT22;53959;53.626;11.410;2022-10-17T05:25:52;12.90;99.90
5138;DHT22;53959;53.626;11.410;2022-10-17T05:28:17;12.80;99.90
5138;DHT22;53959;53.626;11.410;2022-10-17T05:30:43;12.80;99.90
5138;DHT22;53959;53.626;11.410;2022-10-17T05:33:08;12.80;99.90
5138;DHT22;53959;53.626;11.410;2022-10-17T05:35:34;12.80;99.90
5138;DHT22;53959;53.626;11.410;2022-10-17T05:38:00;12.80;99.90
5138;DHT22;53959;53.626;11.410;2022-10-17T05:40:26;12.80;99.90
5138;DHT22;53959;53.626;11.410;2022-10-17T05:42:51;12.90;99.90
5138;DHT22;53959;53.626;11.410;2022-10-17T05:45:17;12.90;99.90
5138;DHT22;53959;53.626;11.410;2022-10-17T05:47:43;12.90;99.90
5138;DHT22;53959;53.626;11.410;2022-10-17T05:50:08;12.90;99.90
5138;DHT22;53959;53.626;11.410;2022-10-17T05:52:34;12.80;99.90
5138;DHT22;53959;53.626;11.410;2022-10-17T05:54:59;12.90;99.90
5138;DHT22;53959;53.626;11.410;2022-10-17T05:57:25;12.90;99.90
5138;DHT22;53959;53.626;11.410;2022-10-17T05:59:51;12.80;99.90
5138;DHT22;53959;53.626;11.410;2022-10-17T06:02:17;12.90;99.90
5138;DHT22;53959;53.626;11.410;2022-10-17T06:04:42;12.90;99.90
5138;DHT22;53959;53.626;11.410;2022-10-17T06:07:11;12.90;99.90
5138;DHT22;53959;53.626;11.410;2022-10-17T06:09:37;12.90;99.90
5138;DHT22;53959;53.626;11.410;2022-10-17T06:12:02;12.90;99.90
5138;DHT22;53959;53.626;11.410;2022-10-17T06:14:28;12.90;99.90
5138;DHT22;53959;53.626;11.410;2022-10-17T06:16:53;12.90;99.90
5138;DHT22;53959;53.626;11.410;2022-10-17T06:19:19;12.90;99.90
5138;DHT22;53959;53.626;11.410;2022-10-17T06:21:44;13.00;99.90
5138;DHT22;53959;53.626;11.410;2022-10-17T06:24:10;13.00;99.90
5138;DHT22;53959;53.626;11.410;2022-10-17T06:26:35;13.00;99.90
5138;DHT22;53959;53.626;11.410;2022-10-17T06:29:01;13.10;99.90
5138;DHT22;53959;53.626;11.410;2022-10-17T06:31:26;13.00;99.90
5138;DHT22;53959;53.626;11.410;2022-10-17T06:33:52;13.10;99.90
5138;DHT22;53959;53.626;11.410;2022-10-17T06:36:17;13.10;99.90
5138;DHT22;53959;53.626;11.410;2022-10-17T06:38:43;13.10;99.90
5138;DHT22;53959;53.626;11.410;2022-10-17T06:41:13;13.20;99.90
5138;DHT22;53959;53.626;11.410;2022-10-17T06:43:41;13.20;99.90
5138;DHT22;53959;53.626;11.410;2022-10-17T06:46:08;13.20;99.90
5138;DHT22;53959;53.626;11.410;2022-10-17T06:48:33;13.20;99.90
5138;DHT22;53959;53.626;11.410;2022-10-17T06:51:00;13.20;99.90
5138;DHT22;53959;53.626;11.410;2022-10-17T06:53:31;13.40;99.90
5138;DHT22;53959;53.626;11.410;2022-10-17T06:55:57;13.40;99.90
5138;DHT22;53959;53.626;11.410;2022-10-17T06:58:34;13.50;99.90
5138;DHT22;53959;53.626;11.410;2022-10-17T07:01:07;13.60;99.90
5138;DHT22;53959;53.626;11.410;2022-10-17T07:03:33;13.60;99.90
5138;DHT22;53959;53.626;11.410;2022-10-17T07:05:58;13.70;99.90
5138;DHT22;53959;53.626;11.410;2022-10-17T07:08:24;13.80;99.90
5138;DHT22;53959;53.626;11.410;2022-10-17T07:10:50;13.80;99.90
5138;DHT22;53959;53.626;11.410;2022-10-17T07:13:16;13.80;99.90
5138;DHT22;53959;53.626;11.410;2022-10-17T07:15:42;13.80;99.90
5138;DHT22;53959;53.626;11.410;2022-10-17T07:18:07;13.90;99.90
5138;DHT22;53959;53.626;11.410;2022-10-17T07:20:33;13.90;99.90
5138;DHT22;53959;53.626;11.410;2022-10-17T07:22:58;13.90;99.90
5138;DHT22;53959;53.626;11.410;2022-10-17T07:25:24;14.00;99.90
5138;DHT22;53959;53.626;11.410;2022-10-17T07:27:51;14.00;99.90
5138;DHT22;53959;53.626;11.410;2022-10-17T07:30:17;14.10;99.90
5138;DHT22;53959;53.626;11.410;2022-10-17T07:32:43;14.10;99.90
5138;DHT22;53959;53.626;11.410;2022-10-17T07:35:10;14.20;99.90
5138;DHT22;53959;53.626;11.410;2022-10-17T07:37:36;14.10;99.90
5138;DHT22;53959;53.626;11.410;2022-10-17T07:40:03;14.10;99.90
5138;DHT22;53959;53.626;11.410;2022-10-17T07:42:29;14.20;99.90
5138;DHT22;53959;53.626;11.410;2022-10-17T07:44:55;14.30;99.90
5138;DHT22;53959;53.626;11.410;2022-10-17T07:47:20;14.30;99.90
5138;DHT22;53959;53.626;11.410;2022-10-17T07:49:46;14.30;99.90
5138;DHT22;53959;53.626;11.410;2022-10-17T07:52:12;14.30;99.90
5138;DHT22;53959;53.626;11.410;2022-10-17T07:54:38;14.40;99.90
5138;DHT22;53959;53.626;11.410;2022-10-17T07:57:04;14.40;99.90
5138;DHT22;53959;53.626;11.410;2022-10-17T07:59:31;14.40;99.90
5138;DHT22;53959;53.626;11.410;2022-10-17T08:01:57;14.50;99.90
5138;DHT22;53959;53.626;11.410;2022-10-17T08:04:23;14.60;99.90
5138;DHT22;53959;53.626;11.410;2022-10-17T08:06:49;14.60;99.90
5138;DHT22;53959;53.626;11.410;2022-10-17T08:09:14;14.80;99.90
5138;DHT22;53959;53.626;11.410;2022-10-17T08:11:40;14.90;99.90
5138;DHT22;53959;53.626;11.410;2022-10-17T08:14:08;15.00;99.90
5138;DHT22;53959;53.626;11.410;2022-10-17T08:16:34;15.10;99.90
5138;DHT22;53959;53.626;11.410;2022-10-17T08:19:00;15.20;99.90
5138;DHT22;53959;53.626;11.410;2022-10-17T08:21:25;15.30;99.90
5138;DHT22;53959;53.626;11.410;2022-10-17T08:23:51;15.40;99.90
5138;DHT22;53959;53.626;11.410;2022-10-17T08:26:17;15.60;99.90
5138;DHT22;53959;53.626;11.410;2022-10-17T08:28:44;15.70;99.90
5138;DHT22;53959;53.626;11.410;2022-10-17T08:31:20;15.70;99.90
5138;DHT22;53959;53.626;11.410;2022-10-17T08:33:47;15.80;99.90
5138;DHT22;53959;53.626;11.410;2022-10-17T08:36:14;15.90;99.90
5138;DHT22;53959;53.626;11.410;2022-10-17T08:38:40;16.10;99.90
5138;DHT22;53959;53.626;11.410;2022-10-17T08:44:01;16.30;99.90
5138;DHT22;53959;53.626;11.410;2022-10-17T08:46:31;16.30;99.90
5138;DHT22;53959;53.626;11.410;2022-10-17T08:49:00;16.40;99.90
5138;DHT22;53959;53.626;11.410;2022-10-17T08:51:30;16.30;99.90
5138;DHT22;53959;53.626;11.410;2022-10-17T08:54:21;16.30;99.90
5138;DHT22;53959;53.626;11.410;2022-10-17T08:56:49;16.50;99.90
5138;DHT22;53959;53.626;11.410;2022-10-17T08:59:23;16.60;99.90
5138;DHT22;53959;53.626;11.410;2022-10-17T09:02:02;16.70;99.90
5138;DHT22;53959;53.626;11.410;2022-10-17T09:04:42;16.90;99.90
5138;DHT22;53959;53.626;11.410;2022-10-17T09:07:31;17.10;99.90
5138;DHT22;53959;53.626;11.410;2022-10-17T09:10:14;17.20;99.90
5138;DHT22;53959;53.626;11.410;2022-10-17T09:12:52;17.30;99.90
5138;DHT22;53959;53.626;11.410;2022-10-17T09:15:33;17.20;99.90
5138;DHT22;53959;53.626;11.410;2022-10-17T09:18:23;17.20;99.90
5138;DHT22;53959;53.626;11.410;2022-10-17T09:24:07;17.30;99.90
5138;DHT22;53959;53.626;11.410;2022-10-17T09:26:37;17.40;99.90
5138;DHT22;53959;53.626;11.410;2022-10-17T09:29:17;17.30;99.90
5138;DHT22;53959;53.626;11.410;2022-10-17T09:34:41;17.30;99.90
5138;DHT22;53959;53.626;11.410;2022-10-17T09:37:12;17.40;99.90
5138;DHT22;53959;53.626;11.410;2022-10-17T09:39:39;17.50;99.90
5138;DHT22;53959;53.626;11.410;2022-10-17T09:42:09;17.40;99.90
5138;DHT22;53959;53.626;11.410;2022-10-17T09:44:50;17.60;99.90
5138;DHT22;53959;53.626;11.410;2022-10-17T09:52:47;17.80;99.90
5138;DHT22;53959;53.626;11.410;2022-10-17T09:55:16;17.90;99.90
5138;DHT22;53959;53.626;11.410;2022-10-17T09:57:57;17.80;99.90
5138;DHT22;53959;53.626;11.410;2022-10-17T10:00:38;17.90;99.90
5138;DHT22;53959;53.626;11.410;2022-10-17T10:03:30;18.00;99.90
5138;DHT22;53959;53.626;11.410;2022-10-17T10:08:31;18.30;99.90
5138;DHT22;53959;53.626;11.410;2022-10-17T10:11:00;18.30;99.90
5138;DHT22;53959;53.626;11.410;2022-10-17T10:13:27;18.50;99.90
5138;DHT22;53959;53.626;11.410;2022-10-17T10:15:53;18.40;99.90
5138;DHT22;53959;53.626;11.410;2022-10-17T10:18:36;18.40;99.90
5138;DHT22;53959;53.626;11.410;2022-10-17T10:21:19;18.50;99.90
5138;DHT22;53959;53.626;11.410;2022-10-17T10:29:06;18.80;99.90
5138;DHT22;53959;53.626;11.410;2022-10-17T10:31:37;18.90;99.90
5138;DHT22;53959;53.626;11.410;2022-10-17T10:34:27;18.90;99.90
5138;DHT22;53959;53.626;11.410;2022-10-17T10:37:27;19.10;99.90
5138;DHT22;53959;53.626;11.410;2022-10-17T10:39:50;19.20;99.90
5138;DHT22;53959;53.626;11.410;2022-10-17T10:42:37;19.30;99.90
5138;DHT22;53959;53.626;11.410;2022-10-17T10:45:21;19.40;99.90
5138;DHT22;53959;53.626;11.410;2022-10-17T10:48:00;19.50;99.90
5138;DHT22;53959;53.626;11.410;2022-10-17T10:55:38;19.50;99.90
5138;DHT22;53959;53.626;11.410;2022-10-17T11:01:02;19.60;99.90
5138;DHT22;53959;53.626;11.410;2022-10-17T11:03:41;19.70;99.90
5138;DHT22;53959;53.626;11.410;2022-10-17T11:06:15;19.80;99.90
5138;DHT22;53959;53.626;11.410;2022-10-17T11:11:46;20.00;99.90
5138;DHT22;53959;53.626;11.410;2022-10-17T11:14:20;19.80;99.90
5138;DHT22;53959;53.626;11.410;2022-10-17T11:17:02;19.90;99.90
5138;DHT22;53959;53.626;11.410;2022-10-17T11:22:41;19.70;99.90
5138;DHT22;53959;53.626;11.410;2022-10-17T11:25:36;19.80;99.90
5138;DHT22;53959;53.626;11.410;2022-10-17T11:28:07;19.80;99.90
5138;DHT22;53959;53.626;11.410;2022-10-17T11:30:47;19.80;99.90
5138;DHT22;53959;53.626;11.410;2022-10-17T11:33:19;19.80;99.90
5138;DHT22;53959;53.626;11.410;2022-10-17T11:35:51;19.90;99.90
5138;DHT22;53959;53.626;11.410;2022-10-17T11:38:26;20.00;99.90
5138;DHT22;53959;53.626;11.410;2022-10-17T11:40:57;20.00;99.90
5138;DHT22;53959;53.626;11.410;2022-10-17T11:43:47;19.90;99.90
5138;DHT22;53959;53.626;11.410;2022-10-17T11:46:19;19.80;99.90
5138;DHT22;53959;53.626;11.410;2022-10-17T11:49:14;19.70;99.90
5138;DHT22;53959;53.626;11.410;2022-10-17T11:52:03;19.60;99.90
5138;DHT22;53959;53.626;11.410;2022-10-17T11:57:09;19.60;99.90
5138;DHT22;53959;53.626;11.410;2022-10-17T12:03:04;19.60;99.90
5138;DHT22;53959;53.626;11.410;2022-10-17T12:11:27;19.60;99.90
5138;DHT22;53959;53.626;11.410;2022-10-17T12:13:54;19.60;99.90
5138;DHT22;53959;53.626;11.410;2022-10-17T12:19:11;19.80;99.90
5138;DHT22;53959;53.626;11.410;2022-10-17T12:25:01;19.90;99.90
5138;DHT22;53959;53.626;11.410;2022-10-17T12:27:42;20.00;99.90
5138;DHT22;53959;53.626;11.410;2022-10-17T12:30:25;19.90;99.90
5138;DHT22;53959;53.626;11.410;2022-10-17T12:32:53;19.90;99.90
5138;DHT22;53959;53.626;11.410;2022-10-17T12:35:22;19.90;99.90
5138;DHT22;53959;53.626;11.410;2022-10-17T12:45:59;20.00;99.90
5138;DHT22;53959;53.626;11.410;2022-10-17T12:51:18;19.80;99.90
5138;DHT22;53959;53.626;11.410;2022-10-17T12:54:26;19.80;99.90
5138;DHT22;53959;53.626;11.410;2022-10-17T12:56:46;19.80;99.90
5138;DHT22;53959;53.626;11.410;2022-10-17T12:59:25;19.80;99.90
5138;DHT22;53959;53.626;11.410;2022-10-17T13:01:56;19.80;99.90
5138;DHT22;53959;53.626;11.410;2022-10-17T13:04:23;19.80;99.90
5138;DHT22;53959;53.626;11.410;2022-10-17T13:06:54;19.70;99.90
5138;DHT22;53959;53.626;11.410;2022-10-17T13:09:23;19.70;99.90
5138;DHT22;53959;53.626;11.410;2022-10-17T13:11:50;19.60;99.90
5138;DHT22;53959;53.626;11.410;2022-10-17T13:14:18;19.60;99.90
5138;DHT22;53959;53.626;11.410;2022-10-17T13:17:00;19.60;99.90
5138;DHT22;53959;53.626;11.410;2022-10-17T13:19:29;19.60;99.90
5138;DHT22;53959;53.626;11.410;2022-10-17T13:21:57;19.70;99.90
5138;DHT22;53959;53.626;11.410;2022-10-17T13:24:31;19.70;99.90
5138;DHT22;53959;53.626;11.410;2022-10-17T13:26:59;19.60;99.90
5138;DHT22;53959;53.626;11.410;2022-10-17T13:29:26;19.60;99.90
5138;DHT22;53959;53.626;11.410;2022-10-17T13:31:55;19.60;99.90
5138;DHT22;53959;53.626;11.410;2022-10-17T13:34:24;19.60;99.90
5138;DHT22;53959;53.626;11.410;2022-10-17T13:37:03;19.60;99.90
5138;DHT22;53959;53.626;11.410;2022-10-17T13:39:33;19.60;99.90
5138;DHT22;53959;53.626;11.410;2022-10-17T13:42:00;19.60;99.90
5138;DHT22;53959;53.626;11.410;2022-10-17T13:44:34;19.50;99.90
5138;DHT22;53959;53.626;11.410;2022-10-17T13:47:00;19.50;99.90
5138;DHT22;53959;53.626;11.410;2022-10-17T13:49:41;19.50;99.90
5138;DHT22;53959;53.626;11.410;2022-10-17T13:52:18;19.50;99.90
5138;DHT22;53959;53.626;11.410;2022-10-17T13:54:46;19.50;99.90
5138;DHT22;53959;53.626;11.410;2022-10-17T13:57:38;19.50;99.90
5138;DHT22;53959;53.626;11.410;2022-10-17T14:00:17;19.60;99.90
5138;DHT22;53959;53.626;11.410;2022-10-17T14:02:44;19.60;99.90
5138;DHT22;53959;53.626;11.410;2022-10-17T14:05:13;19.60;99.90
5138;DHT22;53959;53.626;11.410;2022-10-17T14:07:45;19.60;99.90
5138;DHT22;53959;53.626;11.410;2022-10-17T14:10:35;19.60;99.90
5138;DHT22;53959;53.626;11.410;2022-10-17T14:13:03;19.60;99.90
5138;DHT22;53959;53.626;11.410;2022-10-17T14:15:32;19.60;99.90
5138;DHT22;53959;53.626;11.410;2022-10-17T14:18:03;19.60;99.90
5138;DHT22;53959;53.626;11.410;2022-10-17T14:20:30;19.60;99.90
5138;DHT22;53959;53.626;11.410;2022-10-17T14:22:57;19.60;99.90
5138;DHT22;53959;53.626;11.410;2022-10-17T14:25:35;19.50;99.90
5138;DHT22;53959;53.626;11.410;2022-10-17T14:28:02;19.50;99.90
5138;DHT22;53959;53.626;11.410;2022-10-17T14:33:00;19.50;99.90
5138;DHT22;53959;53.626;11.410;2022-10-17T14:35:28;19.50;99.90
5138;DHT22;53959;53.626;11.410;2022-10-17T14:37:59;19.50;99.90
5138;DHT22;53959;53.626;11.410;2022-10-17T14:40:27;19.40;99.90
5138;DHT22;53959;53.626;11.410;2022-10-17T14:42:56;19.50;99.90
5138;DHT22;53959;53.626;11.410;2022-10-17T14:45:29;19.50;99.90
5138;DHT22;53959;53.626;11.410;2022-10-17T14:48:02;19.40;99.90
5138;DHT22;53959;53.626;11.410;2022-10-17T14:50:30;19.50;99.90
5138;DHT22;53959;53.626;11.410;2022-10-17T14:53:04;19.50;99.90
5138;DHT22;53959;53.626;11.410;2022-10-17T14:55:31;19.50;99.90
5138;DHT22;53959;53.626;11.410;2022-10-17T14:57:57;19.40;99.90
5138;DHT22;53959;53.626;11.410;2022-10-17T15:00:23;19.40;99.90
5138;DHT22;53959;53.626;11.410;2022-10-17T15:02:50;19.40;99.90
5138;DHT22;53959;53.626;11.410;2022-10-17T15:05:17;19.30;99.90
5138;DHT22;53959;53.626;11.410;2022-10-17T15:07:44;19.30;99.90
5138;DHT22;53959;53.626;11.410;2022-10-17T15:12:49;19.20;99.90
5138;DHT22;53959;53.626;11.410;2022-10-17T15:15:14;19.20;99.90
5138;DHT22;53959;53.626;11.410;2022-10-17T15:17:40;19.10;99.90
5138;DHT22;53959;53.626;11.410;2022-10-17T15:20:12;19.10;99.90
5138;DHT22;53959;53.626;11.410;2022-10-17T15:22:38;19.10;99.90
5138;DHT22;53959;53.626;11.410;2022-10-17T15:25:04;19.10;99.90
5138;DHT22;53959;53.626;11.410;2022-10-17T15:27:29;19.00;99.90
5138;DHT22;53959;53.626;11.410;2022-10-17T15:29:56;19.00;99.90
5138;DHT22;53959;53.626;11.410;2022-10-17T15:32:22;18.90;99.90
5138;DHT22;53959;53.626;11.410;2022-10-17T15:34:47;18.90;99.90
5138;DHT22;53959;53.626;11.410;2022-10-17T15:37:24;18.80;99.90
5138;DHT22;53959;53.626;11.410;2022-10-17T15:39:51;18.80;99.90
5138;DHT22;53959;53.626;11.410;2022-10-17T15:42:24;18.80;99.90
5138;DHT22;53959;53.626;11.410;2022-10-17T15:44:50;18.70;99.90
5138;DHT22;53959;53.626;11.410;2022-10-17T15:47:30;18.70;99.90
5138;DHT22;53959;53.626;11.410;2022-10-17T15:50:00;18.70;99.90
5138;DHT22;53959;53.626;11.410;2022-10-17T15:52:26;18.70;99.90
5138;DHT22;53959;53.626;11.410;2022-10-17T15:54:52;18.70;99.90
5138;DHT22;53959;53.626;11.410;2022-10-17T15:57:27;18.60;99.90
5138;DHT22;53959;53.626;11.410;2022-10-17T15:59:53;18.60;99.90
5138;DHT22;53959;53.626;11.410;2022-10-17T16:02:21;18.60;99.90
5138;DHT22;53959;53.626;11.410;2022-10-17T16:04:48;18.50;99.90
5138;DHT22;53959;53.626;11.410;2022-10-17T16:07:14;18.50;99.90
5138;DHT22;53959;53.626;11.410;2022-10-17T16:09:39;18.50;99.90
5138;DHT22;53959;53.626;11.410;2022-10-17T16:12:08;18.50;99.90
5138;DHT22;53959;53.626;11.410;2022-10-17T16:14:35;18.50;99.90
5138;DHT22;53959;53.626;11.410;2022-10-17T16:17:01;18.40;99.90
5138;DHT22;53959;53.626;11.410;2022-10-17T16:19:26;18.40;99.90
5138;DHT22;53959;53.626;11.410;2022-10-17T16:21:55;18.40;99.90
5138;DHT22;53959;53.626;11.410;2022-10-17T16:24:22;18.40;99.90
5138;DHT22;53959;53.626;11.410;2022-10-17T16:26:48;18.40;99.90
5138;DHT22;53959;53.626;11.410;2022-10-17T16:29:13;18.40;99.90
5138;DHT22;53959;53.626;11.410;2022-10-17T16:31:41;18.40;99.90
5138;DHT22;53959;53.626;11.410;2022-10-17T16:34:09;18.30;99.90
5138;DHT22;53959;53.626;11.410;2022-10-17T16:36:35;18.20;99.90
5138;DHT22;53959;53.626;11.410;2022-10-17T16:39:00;18.20;99.90
5138;DHT22;53959;53.626;11.410;2022-10-17T16:41:37;18.10;99.90
5138;DHT22;53959;53.626;11.410;2022-10-17T16:44:07;18.00;99.90
5138;DHT22;53959;53.626;11.410;2022-10-17T16:46:35;18.00;99.90
5138;DHT22;53959;53.626;11.410;2022-10-17T16:49:02;17.90;99.90
5138;DHT22;53959;53.626;11.410;2022-10-17T16:51:28;17.80;99.90
5138;DHT22;53959;53.626;11.410;2022-10-17T16:53:54;17.80;99.90
5138;DHT22;53959;53.626;11.410;2022-10-17T16:56:23;17.80;99.90
5138;DHT22;53959;53.626;11.410;2022-10-17T16:58:49;17.70;99.90
5138;DHT22;53959;53.626;11.410;2022-10-17T17:01:18;17.70;99.90
5138;DHT22;53959;53.626;11.410;2022-10-17T17:03:45;17.60;99.90
5138;DHT22;53959;53.626;11.410;2022-10-17T17:06:12;17.60;99.90
5138;DHT22;53959;53.626;11.410;2022-10-17T17:08:39;17.50;99.90
5138;DHT22;53959;53.626;11.410;2022-10-17T17:11:06;17.50;99.90
5138;DHT22;53959;53.626;11.410;2022-10-17T17:13:32;17.50;99.90
5138;DHT22;53959;53.626;11.410;2022-10-17T17:16:10;17.50;99.90
5138;DHT22;53959;53.626;11.410;2022-10-17T17:18:37;17.40;99.90
5138;DHT22;53959;53.626;11.410;2022-10-17T17:21:04;17.40;99.90
5138;DHT22;53959;53.626;11.410;2022-10-17T17:23:31;17.40;99.90
5138;DHT22;53959;53.626;11.410;2022-10-17T17:26:02;17.30;99.90